Airfield :







YOU CAN JOIN US ON...

 
LOGIN :

Register | Disclaimer

   EN    FR    IT 

 









Legend :    VFR   Marginal VFR   IFR   Intensive IFR   Very Intensive IFR
Visi :
Ceiling :
>= 8 km
>= 3000ft
5 to 8 km
1000 to 3000 ft
1500m to 5 km
500 to 1000 ft
800 to 1500m
200 to 500 ft
< 800m
< 200 ft
Symbols :   Thunderstorms  Fog  Heavy snow  Heavy precipitations  Wind > 20 kt






- Airport Elevation : 121 ft
- IATA code : YBX


CYBX - Lourdes De Blanc Sablon

CURRENT METAR :
  • 051654Z 08012KT 8SM FEW011 OVC020 00/M01 A2939 RMK SC1SC7 SLP956

EXPIRED METARs :
  • 051634Z 08014KT 4SM -SN FEW012 BKN021 OVC042 00/M02 A2939 RMK SC2SC5SC1 SLP957
  • 051600Z 07012KT 10SM OVC016 00/M02 A2940 RMK SC8 SLP958
  • 051542Z 07010G16KT 10SM FEW012 OVC017 00/M01 A2941 RMK SC2SC6 SLP962
  • 051500Z 08014KT 6SM -SN FEW010 OVC017 M00/M01 A2943 RMK SC2SC6 SLP971
  • 051400Z 07012KT 10SM OVC021 M01/M03 A2945 RMK SC8 SLP977

TAF TAF CYBX
Valid from the 05 at 14:00 until the 06 at 02:00 UTC


051338Z 0514/0602 07010KT P6SM OVC015
PROB30 0514/0516 6SM -FZDZ BR
FM051600 05008KT P6SM SCT007 OVC015
TEMPO 0516/0524 4SM -SN BKN007 OVC015
FM060000 36005KT 11/2SM -SN OVC007
TEMPO 0600/0602 3SM -SN OVC010 RMK NXT FCST BY 052000Z



MET'MAP, your aeronautical weather chart ! - Copyright ORBIFLY December 2007 - Disclaimer

ORBIFLY MET'MAP TEAM :

Programming & Development : Alexandra Zaïnal
Concept & original design : Baudouin d'Aumeries
Assistance for programming : Marc-Olivier Méhu
Technical & hardware support : Manuel Goepfert

Contact : metmap@orbifly.com




SOURCES & CREDITS :

   NOAA